»·PEaware :: N8WG KYKM-KAST

N8WG :: KYKM-KAST

FLIGHT INFORMATION

Flight Status: Arrived
Operator: Privately registered:
United States
More flights under this callsign
Pilot: Austin M. (5128)
Aircraft: BEECH AIRCRAFT SUPER KING AIR COMMUTER
(BE20)
More flights by this aircraft type
Origin: KYKM Yakima Air Term/Mcallister
United States
Destination: KAST Astoria Regl
United States
More flights between these airports :: More routes between these airports
Route: +NACHES4 WIKIK V448 BTG V112 KEIKO
File this flight plan on PilotEdge
Remarks:
Altitude:
(Current/Filed)
220ft
Speed:
(Current/Filed)
260kts
Departed: 25-Sep-17 06:48 PM
Arrived: 25-Sep-17 07:40 PM
Distance/Time
Traveled:
140nm/0:52
Distance/Time
To Go:
Arrived

Flight Plot

Page will automatically refresh every two minutes.


Map Options




Map Legend


Flown Route
Filed Route
Departure Airport
Arrival Airport
Navaid (VOR, NDB)
Fix

Horizontal Profiles

Position Reports

Time Latitude Longitude Heading Altitude Ground
Speed
25-Sep-17 18:38 46.569478 -120.537985 270 1061ft 0kts
25-Sep-17 18:39 46.569478 -120.537985 270 1061ft 0kts
25-Sep-17 18:40 46.569478 -120.537985 270 1061ft 0kts
25-Sep-17 18:41 46.569478 -120.537985 270 1061ft 0kts
25-Sep-17 18:42 46.569478 -120.537985 270 1061ft 0kts
25-Sep-17 18:43 46.569478 -120.537985 270 1061ft 0kts
25-Sep-17 18:44 46.569478 -120.537985 270 1061ft 0kts
25-Sep-17 18:45 46.569478 -120.537985 270 1061ft 0kts
25-Sep-17 18:46 46.569252 -120.537878 80 1060ft 0kts
25-Sep-17 18:47 46.568340 -120.537960 118 1059ft 17kts
25-Sep-17 18:48 46.567333 -120.534148 111 1052ft 8kts
25-Sep-17 18:49 46.566733 -120.531774 112 1047ft 7kts
25-Sep-17 18:50 46.566488 -120.531478 168 1047ft 0kts
25-Sep-17 18:51 46.566488 -120.531478 168 1047ft 0kts
25-Sep-17 18:52 46.566532 -120.535594 290 1055ft 103kts
25-Sep-17 18:53 46.586010 -120.575714 333 3897ft 169kts
25-Sep-17 18:54 46.617429 -120.608065 283 6683ft 196kts
25-Sep-17 18:55 46.590970 -120.641155 196 9272ft 162kts
25-Sep-17 18:56 46.543775 -120.666430 206 10174ft 217kts
25-Sep-17 18:57 46.496763 -120.699650 210 11905ft 197kts
25-Sep-17 18:58 46.461281 -120.740743 245 13318ft 186kts
25-Sep-17 18:59 46.438881 -120.799575 247 14381ft 199kts
25-Sep-17 19:00 46.414227 -120.865189 248 15631ft 207kts
25-Sep-17 19:01 46.389403 -120.931208 249 16867ft 207kts
25-Sep-17 19:02 46.364259 -120.998083 251 18122ft 210kts
25-Sep-17 19:03 46.338222 -121.067194 252 19384ft 212kts
25-Sep-17 19:04 46.313429 -121.136867 256 20652ft 208kts
25-Sep-17 19:05 46.292223 -121.205518 261 21910ft 205kts
25-Sep-17 19:06 46.264720 -121.279687 253 22112ft 250kts
25-Sep-17 19:07 46.232370 -121.363825 251 22110ft 269kts
25-Sep-17 19:08 46.198436 -121.451360 251 22108ft 275kts
25-Sep-17 19:09 46.165103 -121.537163 251 22107ft 277kts
25-Sep-17 19:10 46.133400 -121.618626 251 22107ft 277kts
25-Sep-17 19:11 46.099771 -121.704756 251 22110ft 277kts
25-Sep-17 19:12 46.067804 -121.786434 251 22128ft 277kts
25-Sep-17 19:13 46.035135 -121.869653 251 22148ft 277kts
25-Sep-17 19:14 46.006109 -121.943419 251 22049ft 281kts
25-Sep-17 19:15 45.978348 -122.013361 251 21500ft 263kts
25-Sep-17 19:16 45.950026 -122.085173 251 20868ft 265kts
25-Sep-17 19:17 45.923752 -122.152103 250 20194ft 266kts
25-Sep-17 19:18 45.895586 -122.223457 249 19333ft 268kts
25-Sep-17 19:19 45.869841 -122.288151 248 18376ft 270kts
25-Sep-17 19:20 45.846515 -122.346563 248 17510ft 270kts
25-Sep-17 19:21 45.821778 -122.408362 247 16388ft 272kts
25-Sep-17 19:22 45.804979 -122.473478 288 15145ft 252kts
25-Sep-17 19:23 45.829610 -122.542009 298 13745ft 241kts
25-Sep-17 19:24 45.851776 -122.611932 296 12314ft 243kts
25-Sep-17 19:25 45.872814 -122.682022 296 10907ft 246kts
25-Sep-17 19:26 45.891611 -122.745253 296 9660ft 251kts
25-Sep-17 19:27 45.912521 -122.813834 291 8412ft 242kts
25-Sep-17 19:28 45.933606 -122.886468 290 7554ft 231kts
25-Sep-17 19:29 45.954153 -122.956731 290 6719ft 230kts
25-Sep-17 19:30 45.974956 -123.027850 291 5860ft 226kts
25-Sep-17 19:31 45.997142 -123.103740 291 5056ft 232kts
25-Sep-17 19:32 46.023135 -123.191149 291 5023ft 250kts
25-Sep-17 19:33 46.048929 -123.280174 291 5017ft 245kts
25-Sep-17 19:34 46.074846 -123.369614 291 5018ft 244kts
25-Sep-17 19:35 46.108520 -123.445058 306 4527ft 234kts
25-Sep-17 19:36 46.134059 -123.512537 275 4210ft 211kts
25-Sep-17 19:37 46.138553 -123.576727 274 3622ft 132kts
25-Sep-17 19:38 46.142059 -123.627056 275 3398ft 127kts
25-Sep-17 19:39 46.145168 -123.672057 275 2779ft 133kts
25-Sep-17 19:40 46.148457 -123.720100 275 2177ft 134kts
25-Sep-17 19:41 46.152009 -123.772832 275 1423ft 129kts
25-Sep-17 19:42 46.155096 -123.818853 275 752ft 128kts
25-Sep-17 19:43 46.157922 -123.861566 274 142ft 121kts
25-Sep-17 19:44 46.158478 -123.877419 247 15ft 12kts
25-Sep-17 19:45 46.158225 -123.878280 248 17ft 7kts

Navigation Log

Ident Type
Flight plan parsing failed, navigation log unavailable